Time,TemperatureF,DewpointF,PressureIn,WindDirection,WindDirectionDegrees,WindSpeedMPH,WindSpeedGustMPH,Humidity,HourlyPrecipIn,Conditions,Clouds,dailyrainin,SoftwareType,DateUTC
2013-05-22 00:01:00,68.4,61.5,28.07,West,270,3.0,5.0,79,0.00,,,0.00,meteohub,2013-05-22 04:01:00,
2013-05-22 00:02:00,68.4,61.5,28.07,West,270,3.0,5.0,79,0.00,,,0.00,meteohub,2013-05-22 04:02:00,
2013-05-22 00:03:00,68.2,61.3,28.07,West,270,2.0,5.0,79,0.00,,,0.00,meteohub,2013-05-22 04:03:00,
2013-05-22 00:07:00,68.2,61.3,28.07,NW,315,2.0,5.0,79,0.00,,,0.00,meteohub,2013-05-22 04:07:00,
2013-05-22 00:12:00,68.0,61.5,28.06,North,0,2.0,5.0,80,0.00,,,0.00,meteohub,2013-05-22 04:12:00,
2013-05-22 00:17:00,67.6,61.5,28.06,NW,315,1.0,3.0,81,0.00,,,0.00,meteohub,2013-05-22 04:17:00,
2013-05-22 00:22:00,67.5,61.7,28.06,NE,45,0.0,2.0,82,0.00,,,0.00,meteohub,2013-05-22 04:22:00,
2013-05-22 00:27:00,67.1,61.3,28.06,South,180,0.0,2.0,82,0.00,,,0.00,meteohub,2013-05-22 04:27:00,
2013-05-22 00:32:00,66.9,61.2,28.07,SE,135,0.0,2.0,82,0.00,,,0.00,meteohub,2013-05-22 04:32:00,
2013-05-22 00:37:00,66.6,61.2,28.06,South,180,0.0,2.0,83,0.00,,,0.00,meteohub,2013-05-22 04:37:00,
2013-05-22 00:42:00,66.2,61.2,28.07,West,270,0.0,1.0,84,0.00,,,0.00,meteohub,2013-05-22 04:42:00,
2013-05-22 00:47:00,66.2,61.2,28.06,West,270,0.0,1.0,84,0.00,,,0.00,meteohub,2013-05-22 04:47:00,
2013-05-22 00:52:00,66.2,61.2,28.06,West,270,0.0,0.0,84,0.00,,,0.00,meteohub,2013-05-22 04:52:00,
2013-05-22 00:57:00,65.5,61.2,28.06,East,90,0.0,0.0,86,0.00,,,0.00,meteohub,2013-05-22 04:57:00,
2013-05-22 01:02:00,65.1,60.8,28.05,South,180,0.0,0.0,86,0.00,,,0.00,meteohub,2013-05-22 05:02:00,
2013-05-22 01:07:00,64.9,61.0,28.05,South,180,0.0,0.0,87,0.00,,,0.00,meteohub,2013-05-22 05:07:00,
2013-05-22 01:12:00,64.8,60.8,28.06,South,180,0.0,0.0,87,0.00,,,0.00,meteohub,2013-05-22 05:12:00,
2013-05-22 01:17:00,64.6,61.0,28.05,South,180,0.0,0.0,88,0.00,,,0.00,meteohub,2013-05-22 05:17:00,
2013-05-22 01:22:00,64.6,61.0,28.05,South,180,0.0,0.0,88,0.00,,,0.00,meteohub,2013-05-22 05:22:00,
2013-05-22 01:27:00,64.6,61.0,28.05,SE,135,0.0,0.0,88,0.00,,,0.00,meteohub,2013-05-22 05:27:00,
2013-05-22 01:32:00,64.4,61.2,28.05,SW,225,2.0,0.0,89,0.00,,,0.00,meteohub,2013-05-22 05:32:00,
2013-05-22 01:37:00,64.4,61.2,28.04,SW,225,0.0,2.0,89,0.00,,,0.00,meteohub,2013-05-22 05:37:00,
2013-05-22 01:42:00,64.2,61.0,28.04,SW,225,0.0,2.0,89,0.00,,,0.00,meteohub,2013-05-22 05:42:00,
2013-05-22 01:47:00,64.2,61.0,28.04,West,270,0.0,2.0,89,0.00,,,0.00,meteohub,2013-05-22 05:47:00,
2013-05-22 01:52:00,64.2,61.2,28.03,West,270,0.0,0.0,90,0.00,,,0.00,meteohub,2013-05-22 05:52:00,
2013-05-22 01:57:00,64.0,61.0,28.04,East,90,2.0,0.0,90,0.00,,,0.00,meteohub,2013-05-22 05:57:00,
2013-05-22 02:02:00,64.0,61.0,28.03,South,180,2.0,2.0,90,0.00,,,0.00,meteohub,2013-05-22 06:02:00,
2013-05-22 02:07:00,64.0,61.0,28.02,South,180,2.0,2.0,90,0.00,,,0.00,meteohub,2013-05-22 06:07:00,
2013-05-22 02:12:00,63.5,60.8,28.02,North,0,0.0,2.0,91,0.00,,,0.00,meteohub,2013-05-22 06:12:00,
2013-05-22 02:17:00,63.5,60.8,28.02,West,270,0.0,2.0,91,0.00,,,0.00,meteohub,2013-05-22 06:17:00,
2013-05-22 02:22:00,63.3,60.6,28.02,NE,45,0.0,2.0,91,0.00,,,0.00,meteohub,2013-05-22 06:22:00,
2013-05-22 02:27:00,63.0,60.6,28.02,West,270,2.0,2.0,92,0.00,,,0.00,meteohub,2013-05-22 06:27:00,
2013-05-22 02:32:00,63.0,60.6,28.01,West,270,0.0,2.0,92,0.00,,,0.00,meteohub,2013-05-22 06:32:00,
2013-05-22 02:37:00,62.8,60.4,28.01,SW,225,2.0,2.0,92,0.00,,,0.00,meteohub,2013-05-22 06:37:00,
2013-05-22 02:42:00,62.8,60.4,28.01,NW,315,0.0,2.0,92,0.00,,,0.00,meteohub,2013-05-22 06:42:00,
2013-05-22 02:47:00,62.6,60.6,28.01,South,180,0.0,2.0,93,0.00,,,0.00,meteohub,2013-05-22 06:47:00,
2013-05-22 02:52:00,62.6,60.6,28.01,SW,225,0.0,2.0,93,0.00,,,0.00,meteohub,2013-05-22 06:52:00,
2013-05-22 02:57:00,62.4,60.6,28.01,SW,225,0.0,1.0,94,0.00,,,0.00,meteohub,2013-05-22 06:57:00,
2013-05-22 03:02:00,62.4,60.6,28.01,West,270,0.0,0.0,94,0.00,,,0.00,meteohub,2013-05-22 07:02:00,
2013-05-22 03:07:00,62.2,60.4,28.01,West,270,0.0,0.0,94,0.00,,,0.00,meteohub,2013-05-22 07:07:00,
2013-05-22 03:12:00,62.2,60.4,28.01,West,270,0.0,2.0,94,0.00,,,0.00,meteohub,2013-05-22 07:12:00,
2013-05-22 03:18:00,62.2,60.4,28.00,NW,315,0.0,2.0,94,0.00,,,0.00,meteohub,2013-05-22 07:18:00,
2013-05-22 03:23:00,62.1,60.3,28.00,West,270,2.0,2.0,94,0.00,,,0.00,meteohub,2013-05-22 07:23:00,
2013-05-22 03:28:00,62.1,60.3,28.00,West,270,0.0,2.0,94,0.00,,,0.00,meteohub,2013-05-22 07:28:00,
2013-05-22 03:33:00,61.9,60.1,27.99,South,180,1.0,2.0,94,0.00,,,0.00,meteohub,2013-05-22 07:33:00,
2013-05-22 03:38:00,61.3,59.9,27.99,North,0,0.0,2.0,95,0.00,,,0.00,meteohub,2013-05-22 07:38:00,
2013-05-22 03:43:00,61.2,59.7,27.99,North,0,0.0,2.0,95,0.00,,,0.00,meteohub,2013-05-22 07:43:00,
2013-05-22 03:48:00,60.8,59.4,27.99,West,270,0.0,2.0,95,0.00,,,0.00,meteohub,2013-05-22 07:48:00,
2013-05-22 03:53:00,60.8,59.4,28.00,SE,135,0.0,0.0,95,0.00,,,0.00,meteohub,2013-05-22 07:53:00,
2013-05-22 03:58:00,60.6,59.7,28.00,SE,135,0.0,2.0,97,0.00,,,0.00,meteohub,2013-05-22 07:58:00,
2013-05-22 04:04:00,60.6,59.7,28.00,SE,135,0.0,2.0,97,0.00,,,0.00,meteohub,2013-05-22 08:04:00,
2013-05-22 04:09:00,60.3,59.4,28.00,West,270,0.0,2.0,97,0.00,,,0.00,meteohub,2013-05-22 08:09:00,
2013-05-22 04:14:00,60.1,59.2,27.99,South,180,0.0,0.0,97,0.00,,,0.00,meteohub,2013-05-22 08:14:00,
2013-05-22 04:19:00,60.1,59.5,28.00,South,180,0.0,1.0,98,0.00,,,0.00,meteohub,2013-05-22 08:19:00,
2013-05-22 04:24:00,59.9,59.4,28.00,South,180,0.0,1.0,98,0.00,,,0.00,meteohub,2013-05-22 08:24:00,
2013-05-22 04:29:00,59.9,59.4,28.00,West,270,0.0,1.0,98,0.00,,,0.00,meteohub,2013-05-22 08:29:00,
2013-05-22 04:34:00,59.9,59.4,28.00,West,270,0.0,0.0,98,0.00,,,0.00,meteohub,2013-05-22 08:34:00,
2013-05-22 04:39:00,59.9,59.5,28.01,West,270,0.0,0.0,99,0.00,,,0.00,meteohub,2013-05-22 08:39:00,
2013-05-22 04:44:00,59.7,59.4,28.01,NW,315,2.0,0.0,99,0.00,,,0.00,meteohub,2013-05-22 08:44:00,
2013-05-22 04:49:00,59.7,59.4,28.01,NW,315,2.0,0.0,99,0.00,,,0.00,meteohub,2013-05-22 08:49:00,
2013-05-22 04:55:00,59.5,59.2,28.01,West,270,0.0,3.0,99,0.00,,,0.00,meteohub,2013-05-22 08:55:00,
2013-05-22 05:00:00,59.5,59.2,28.01,SW,225,0.0,3.0,99,0.00,,,0.00,meteohub,2013-05-22 09:00:00,
2013-05-22 05:05:00,59.4,59.0,28.01,South,180,0.0,3.0,99,0.00,,,0.00,meteohub,2013-05-22 09:05:00,
2013-05-22 05:10:00,59.2,58.8,28.01,SE,135,0.0,2.0,99,0.00,,,0.00,meteohub,2013-05-22 09:10:00,
2013-05-22 05:15:00,59.2,58.8,28.01,SE,135,0.0,2.0,99,0.00,,,0.00,meteohub,2013-05-22 09:15:00,
2013-05-22 05:20:00,59.0,58.6,28.01,South,180,0.0,1.0,99,0.00,,,0.00,meteohub,2013-05-22 09:20:00,
2013-05-22 05:25:00,58.8,58.5,28.01,NW,315,0.0,0.0,99,0.00,,,0.00,meteohub,2013-05-22 09:25:00,
2013-05-22 05:30:00,58.6,58.3,28.01,South,180,0.0,2.0,99,0.00,,,0.00,meteohub,2013-05-22 09:30:00,
2013-05-22 05:35:00,58.6,58.3,28.01,South,180,2.0,2.0,99,0.00,,,0.00,meteohub,2013-05-22 09:35:00,
2013-05-22 05:41:00,58.5,58.1,28.01,South,180,0.0,2.0,99,0.00,,,0.00,meteohub,2013-05-22 09:41:00,
2013-05-22 05:46:00,58.3,57.9,28.01,South,180,0.0,2.0,99,0.00,,,0.00,meteohub,2013-05-22 09:46:00,
2013-05-22 05:51:00,58.6,58.3,28.01,South,180,2.0,2.0,99,0.00,,,0.00,meteohub,2013-05-22 09:51:00,
2013-05-22 05:56:00,58.8,58.5,28.02,SW,225,0.0,2.0,99,0.00,,,0.00,meteohub,2013-05-22 09:56:00,
2013-05-22 06:01:00,58.8,58.5,28.02,NW,315,0.0,2.0,99,0.00,,,0.00,meteohub,2013-05-22 10:01:00,
2013-05-22 06:06:00,58.8,58.5,28.02,NW,315,0.0,2.0,99,0.00,,,0.00,meteohub,2013-05-22 10:06:00,
2013-05-22 06:11:00,58.3,57.9,28.02,NW,315,0.0,0.0,99,0.00,,,0.00,meteohub,2013-05-22 10:11:00,
2013-05-22 06:16:00,58.3,57.9,28.02,West,270,1.0,0.0,99,0.00,,,0.00,meteohub,2013-05-22 10:16:00,
2013-05-22 06:21:00,58.3,57.9,28.03,West,270,0.0,2.0,99,0.00,,,0.00,meteohub,2013-05-22 10:21:00,
2013-05-22 06:27:00,58.3,57.9,28.03,West,270,2.0,2.0,99,0.00,,,0.00,meteohub,2013-05-22 10:27:00,
2013-05-22 06:32:00,58.3,57.9,28.03,NW,315,0.0,2.0,99,0.00,,,0.00,meteohub,2013-05-22 10:32:00,
2013-05-22 06:37:00,58.3,57.9,28.03,NW,315,0.0,2.0,99,0.00,,,0.00,meteohub,2013-05-22 10:37:00,
2013-05-22 06:42:00,58.5,58.1,28.04,West,270,0.0,2.0,99,0.00,,,0.00,meteohub,2013-05-22 10:42:00,
2013-05-22 06:47:00,58.5,58.1,28.04,East,90,0.0,2.0,99,0.00,,,0.00,meteohub,2013-05-22 10:47:00,
2013-05-22 06:52:00,58.6,58.3,28.04,East,90,0.0,0.0,99,0.00,,,0.00,meteohub,2013-05-22 10:52:00,
2013-05-22 06:57:00,59.2,58.8,28.04,NE,45,2.0,2.0,99,0.00,,,0.00,meteohub,2013-05-22 10:57:00,
2013-05-22 07:02:00,59.4,59.0,28.05,SE,135,0.0,2.0,99,0.00,,,0.00,meteohub,2013-05-22 11:02:00,
2013-05-22 07:07:00,59.5,59.2,28.04,SE,135,0.0,2.0,99,0.00,,,0.00,meteohub,2013-05-22 11:07:00,
2013-05-22 07:12:00,59.9,59.5,28.04,NE,45,1.0,2.0,99,0.00,,,0.00,meteohub,2013-05-22 11:12:00,
2013-05-22 07:17:00,60.3,59.9,28.04,North,0,2.0,2.0,99,0.00,,,0.00,meteohub,2013-05-22 11:17:00,
2013-05-22 07:22:00,60.4,60.1,28.04,NW,315,2.0,2.0,99,0.00,,,0.00,meteohub,2013-05-22 11:22:00,
2013-05-22 07:27:00,60.6,60.3,28.05,West,270,2.0,2.0,99,0.00,,,0.00,meteohub,2013-05-22 11:27:00,
2013-05-22 07:32:00,61.0,60.4,28.05,NE,45,2.0,3.0,98,0.00,,,0.00,meteohub,2013-05-22 11:32:00,
2013-05-22 07:37:00,61.3,60.8,28.05,North,0,0.0,3.0,98,0.00,,,0.00,meteohub,2013-05-22 11:37:00,
2013-05-22 07:42:00,61.9,61.3,28.05,North,0,2.0,3.0,98,0.00,,,0.00,meteohub,2013-05-22 11:42:00,
2013-05-22 07:47:00,62.4,61.9,28.05,NW,315,0.0,2.0,98,0.00,,,0.00,meteohub,2013-05-22 11:47:00,
2013-05-22 07:52:00,62.8,61.9,28.05,NW,315,2.0,2.0,97,0.00,,,0.00,meteohub,2013-05-22 11:52:00,
2013-05-22 07:57:00,63.0,62.1,28.05,NW,315,2.0,2.0,97,0.00,,,0.00,meteohub,2013-05-22 11:57:00,
2013-05-22 08:02:00,63.5,62.6,28.05,North,0,1.0,2.0,97,0.00,,,0.00,meteohub,2013-05-22 12:02:00,
2013-05-22 08:07:00,63.5,62.6,28.05,North,0,1.0,2.0,97,0.00,,,0.00,meteohub,2013-05-22 12:07:00,
2013-05-22 08:12:00,65.3,64.0,28.05,South,180,2.0,2.0,96,0.00,,,0.00,meteohub,2013-05-22 12:12:00,
2013-05-22 08:17:00,65.7,64.2,28.05,North,0,2.0,3.0,95,0.00,,,0.00,meteohub,2013-05-22 12:17:00,
2013-05-22 08:22:00,65.8,63.7,28.05,NW,315,1.0,3.0,93,0.00,,,0.00,meteohub,2013-05-22 12:22:00,
2013-05-22 08:27:00,65.8,63.5,28.05,SE,135,3.0,3.0,92,0.00,,,0.00,meteohub,2013-05-22 12:27:00,
2013-05-22 08:32:00,66.0,63.3,28.05,SE,135,2.0,4.0,91,0.00,,,0.00,meteohub,2013-05-22 12:32:00,
2013-05-22 08:37:00,66.4,63.3,28.05,South,180,3.0,4.0,90,0.00,,,0.00,meteohub,2013-05-22 12:37:00,
2013-05-22 08:42:00,66.6,63.1,28.05,SE,135,2.0,4.0,89,0.00,,,0.00,meteohub,2013-05-22 12:42:00,
2013-05-22 08:47:00,67.1,63.7,28.05,NE,45,2.0,4.0,89,0.00,,,0.00,meteohub,2013-05-22 12:47:00,
2013-05-22 08:53:00,68.0,64.0,28.04,South,180,3.0,4.0,87,0.00,,,0.00,meteohub,2013-05-22 12:53:00,
2013-05-22 08:58:00,68.5,63.9,28.04,NE,45,2.0,4.0,85,0.00,,,0.00,meteohub,2013-05-22 12:58:00,
2013-05-22 09:03:00,69.1,64.0,28.05,SW,225,2.0,4.0,84,0.00,,,0.00,meteohub,2013-05-22 13:03:00,
2013-05-22 09:08:00,69.3,63.9,28.05,North,0,3.0,4.0,83,0.00,,,0.00,meteohub,2013-05-22 13:08:00,
2013-05-22 09:13:00,69.8,63.7,28.05,West,270,4.0,4.0,81,0.00,,,0.00,meteohub,2013-05-22 13:13:00,
2013-05-22 09:18:00,70.0,63.5,28.05,West,270,4.0,4.0,80,0.00,,,0.00,meteohub,2013-05-22 13:18:00,
2013-05-22 09:23:00,70.2,63.3,28.05,West,270,3.0,6.0,79,0.00,,,0.00,meteohub,2013-05-22 13:23:00,
2013-05-22 09:28:00,70.5,64.0,28.05,West,270,5.0,6.0,80,0.00,,,0.00,meteohub,2013-05-22 13:28:00,
2013-05-22 09:33:00,70.9,64.0,28.05,NW,315,2.0,6.0,79,0.00,,,0.00,meteohub,2013-05-22 13:33:00,
2013-05-22 09:39:00,71.6,64.4,28.05,SE,135,2.0,5.0,78,0.00,,,0.00,meteohub,2013-05-22 13:39:00,
2013-05-22 09:44:00,72.3,64.8,28.05,South,180,3.0,5.0,77,0.00,,,0.00,meteohub,2013-05-22 13:44:00,
2013-05-22 09:49:00,72.9,64.8,28.05,NW,315,4.0,4.0,76,0.00,,,0.00,meteohub,2013-05-22 13:49:00,
2013-05-22 09:54:00,73.2,64.8,28.05,NW,315,4.0,6.0,75,0.00,,,0.00,meteohub,2013-05-22 13:54:00,
2013-05-22 09:59:00,73.9,66.2,28.05,NW,315,2.0,6.0,77,0.00,,,0.00,meteohub,2013-05-22 13:59:00,
2013-05-22 10:04:00,74.1,66.4,28.05,SW,225,2.0,6.0,77,0.00,,,0.00,meteohub,2013-05-22 14:04:00,
2013-05-22 10:09:00,75.6,66.7,28.04,South,180,2.0,5.0,74,0.00,,,0.00,meteohub,2013-05-22 14:09:00,
2013-05-22 10:14:00,75.9,66.2,28.04,West,270,3.0,4.0,72,0.00,,,0.00,meteohub,2013-05-22 14:14:00,
2013-05-22 10:19:00,76.1,66.7,28.05,West,270,2.0,3.0,73,0.00,,,0.00,meteohub,2013-05-22 14:19:00,
2013-05-22 10:24:00,77.0,66.0,28.04,North,0,4.0,4.0,69,0.00,,,0.00,meteohub,2013-05-22 14:24:00,
2013-05-22 10:30:00,77.2,65.3,28.04,South,180,2.0,3.0,67,0.00,,,0.00,meteohub,2013-05-22 14:30:00,
2013-05-22 10:35:00,77.7,65.5,28.04,NW,315,2.0,4.0,66,0.00,,,0.00,meteohub,2013-05-22 14:35:00,
2013-05-22 10:40:00,78.3,66.4,28.04,SW,225,2.0,4.0,67,0.00,,,0.00,meteohub,2013-05-22 14:40:00,
2013-05-22 10:45:00,78.6,66.4,28.05,West,270,4.0,4.0,66,0.00,,,0.00,meteohub,2013-05-22 14:45:00,
2013-05-22 10:50:00,78.8,66.0,28.05,SE,135,2.0,4.0,65,0.00,,,0.00,meteohub,2013-05-22 14:50:00,
2013-05-22 10:55:00,79.3,66.0,28.04,SE,135,2.0,5.0,64,0.00,,,0.00,meteohub,2013-05-22 14:55:00,
2013-05-22 11:00:00,80.1,66.7,28.04,NW,315,3.0,5.0,64,0.00,,,0.00,meteohub,2013-05-22 15:00:00,
2013-05-22 11:05:00,80.1,65.8,28.04,South,180,3.0,5.0,62,0.00,,,0.00,meteohub,2013-05-22 15:05:00,
2013-05-22 11:10:00,80.2,65.5,28.04,SE,135,3.0,4.0,61,0.00,,,0.00,meteohub,2013-05-22 15:10:00,
2013-05-22 11:16:00,80.4,64.2,28.04,SE,135,2.0,4.0,58,0.00,,,0.00,meteohub,2013-05-22 15:16:00,
2013-05-22 11:21:00,80.8,65.1,28.04,NNW,338,3.0,4.0,59,0.00,,,0.00,meteohub,2013-05-22 15:21:00,
2013-05-22 11:26:00,81.0,63.9,28.03,South,180,3.0,3.0,56,0.00,,,0.00,meteohub,2013-05-22 15:26:00,
2013-05-22 11:31:00,81.5,64.8,28.03,West,270,2.0,4.0,57,0.00,,,0.00,meteohub,2013-05-22 15:31:00,
2013-05-22 11:36:00,81.7,63.9,28.03,South,180,4.0,6.0,55,0.00,,,0.00,meteohub,2013-05-22 15:36:00,
2013-05-22 11:41:00,82.0,63.1,28.03,NW,315,2.0,6.0,53,0.00,,,0.00,meteohub,2013-05-22 15:41:00,
2013-05-22 11:46:00,82.2,63.9,28.02,NW,315,2.0,8.0,54,0.00,,,0.00,meteohub,2013-05-22 15:46:00,
2013-05-22 11:51:00,82.8,63.3,28.03,West,270,3.0,8.0,52,0.00,,,0.00,meteohub,2013-05-22 15:51:00,
2013-05-22 11:56:00,82.4,62.4,28.03,NE,45,3.0,8.0,51,0.00,,,0.00,meteohub,2013-05-22 15:56:00,
2013-05-22 12:02:00,82.0,62.1,28.03,SW,225,2.0,4.0,51,0.00,,,0.00,meteohub,2013-05-22 16:02:00,
2013-05-22 12:07:00,82.0,62.1,28.03,SW,225,2.0,6.0,51,0.00,,,0.00,meteohub,2013-05-22 16:07:00,
2013-05-22 12:12:00,82.4,61.9,28.03,SE,135,2.0,6.0,50,0.00,,,0.00,meteohub,2013-05-22 16:12:00,
2013-05-22 12:17:00,82.9,63.0,28.02,WNW,293,5.0,5.0,51,0.00,,,0.00,meteohub,2013-05-22 16:17:00,
2013-05-22 12:22:00,82.8,61.7,28.02,West,270,2.0,7.0,49,0.00,,,0.00,meteohub,2013-05-22 16:22:00,
2013-05-22 12:27:00,82.8,61.7,28.01,SW,225,2.0,7.0,49,0.00,,,0.00,meteohub,2013-05-22 16:27:00,
2013-05-22 12:32:00,82.9,61.2,28.01,NE,45,3.0,7.0,48,0.00,,,0.00,meteohub,2013-05-22 16:32:00,
2013-05-22 12:37:00,82.9,61.2,28.01,NE,45,2.0,5.0,48,0.00,,,0.00,meteohub,2013-05-22 16:37:00,
2013-05-22 12:42:00,83.7,62.4,28.01,SSW,203,2.0,4.0,49,0.00,,,0.00,meteohub,2013-05-22 16:42:00,
2013-05-22 12:47:00,84.2,61.2,28.01,NE,45,4.0,4.0,46,0.00,,,0.00,meteohub,2013-05-22 16:47:00,
2013-05-22 12:52:00,84.7,61.7,28.01,SE,135,4.0,4.0,46,0.00,,,0.00,meteohub,2013-05-22 16:52:00,
2013-05-22 12:57:00,85.1,62.6,28.01,East,90,3.0,4.0,47,0.00,,,0.00,meteohub,2013-05-22 16:57:00,
2013-05-22 13:02:00,85.5,62.2,28.00,NE,45,2.0,5.0,46,0.00,,,0.00,meteohub,2013-05-22 17:02:00,
2013-05-22 13:07:00,85.6,63.7,28.00,SE,135,2.0,5.0,48,0.00,,,0.00,meteohub,2013-05-22 17:07:00,
2013-05-22 13:12:00,86.0,62.8,27.99,NE,45,4.0,4.0,46,0.00,,,0.00,meteohub,2013-05-22 17:12:00,
2013-05-22 13:18:00,85.8,63.3,27.99,SE,135,4.0,4.0,47,0.00,,,0.00,meteohub,2013-05-22 17:18:00,
2013-05-22 13:23:00,85.8,62.6,27.99,SE,135,3.0,7.0,46,0.00,,,0.00,meteohub,2013-05-22 17:23:00,
2013-05-22 13:28:00,86.2,64.2,27.99,South,180,3.0,7.0,48,0.00,,,0.00,meteohub,2013-05-22 17:28:00,
2013-05-22 13:33:00,86.2,62.4,27.99,West,270,6.0,7.0,45,0.00,,,0.00,meteohub,2013-05-22 17:33:00,
2013-05-22 13:38:00,85.3,62.8,27.99,West,270,3.0,7.0,47,0.00,,,0.00,meteohub,2013-05-22 17:38:00,
2013-05-22 13:43:00,85.5,63.0,27.99,SW,225,4.0,6.0,47,0.00,,,0.00,meteohub,2013-05-22 17:43:00,
2013-05-22 13:48:00,84.0,61.7,27.99,SW,225,4.0,6.0,47,0.00,,,0.00,meteohub,2013-05-22 17:48:00,
2013-05-22 13:53:00,82.9,61.9,27.99,SW,225,5.0,7.0,49,0.00,,,0.00,meteohub,2013-05-22 17:53:00,
2013-05-22 13:58:00,81.9,62.4,27.99,NW,315,7.0,7.0,52,0.00,,,0.00,meteohub,2013-05-22 17:58:00,
2013-05-22 14:04:00,81.3,63.1,27.98,SW,225,8.0,8.0,54,0.00,,,0.00,meteohub,2013-05-22 18:04:00,
2013-05-22 14:09:00,78.8,61.3,27.98,West,270,7.0,8.0,55,0.00,,,0.00,meteohub,2013-05-22 18:09:00,
2013-05-22 14:14:00,76.1,63.5,27.98,West,270,6.0,8.0,65,0.00,,,0.00,meteohub,2013-05-22 18:14:00,
2013-05-22 14:19:00,73.8,64.2,27.98,WSW,248,6.0,11.0,72,0.02,,,0.02,meteohub,2013-05-22 18:19:00,
2013-05-22 14:24:00,73.2,64.4,27.98,NW,315,4.0,11.0,74,0.02,,,0.02,meteohub,2013-05-22 18:24:00,
2013-05-22 14:32:00,74.8,67.5,27.99,West,270,4.0,11.0,78,0.02,,,0.02,meteohub,2013-05-22 18:32:00,
2013-05-22 14:37:00,75.2,66.4,27.99,NW,315,5.0,5.0,74,0.02,,,0.02,meteohub,2013-05-22 18:37:00,
2013-05-22 14:43:00,74.3,65.8,27.99,SW,225,8.0,11.0,75,0.02,,,0.02,meteohub,2013-05-22 18:43:00,
2013-05-22 14:48:00,72.7,64.2,28.00,West,270,9.0,14.0,75,0.02,,,0.02,meteohub,2013-05-22 18:48:00,
2013-05-22 14:53:00,72.3,62.8,27.99,West,270,12.0,16.0,72,0.02,,,0.02,meteohub,2013-05-22 18:53:00,
2013-05-22 14:58:00,72.0,62.1,27.99,West,270,8.0,16.0,71,0.02,,,0.02,meteohub,2013-05-22 18:58:00,
2013-05-22 15:03:00,71.8,62.2,27.99,SW,225,6.0,16.0,72,0.02,,,0.02,meteohub,2013-05-22 19:03:00,
2013-05-22 15:08:00,71.4,62.8,28.00,West,270,7.0,15.0,74,0.02,,,0.02,meteohub,2013-05-22 19:08:00,
2013-05-22 15:13:00,70.0,62.8,28.01,West,270,7.0,15.0,78,0.02,,,0.02,meteohub,2013-05-22 19:13:00,
2013-05-22 15:18:00,67.5,63.1,28.01,West,270,10.0,15.0,86,0.06,,,0.02,meteohub,2013-05-22 19:18:00,
2013-05-22 15:23:00,66.0,62.6,28.00,West,270,6.0,15.0,89,0.11,,,0.13,meteohub,2013-05-22 19:23:00,
2013-05-22 15:28:00,65.3,62.6,28.00,WNW,293,4.0,17.0,91,0.17,,,0.19,meteohub,2013-05-22 19:28:00,
2013-05-22 15:34:00,65.3,63.0,28.00,West,270,3.0,17.0,92,0.17,,,0.19,meteohub,2013-05-22 19:34:00,
2013-05-22 15:39:00,65.5,63.3,27.99,NW,315,7.0,17.0,93,0.17,,,0.19,meteohub,2013-05-22 19:39:00,
2013-05-22 15:44:00,65.8,64.0,27.99,NW,315,7.0,7.0,94,0.17,,,0.19,meteohub,2013-05-22 19:44:00,
2013-05-22 15:49:00,66.6,64.8,27.99,SW,225,2.0,7.0,94,0.18,,,0.20,meteohub,2013-05-22 19:49:00,
2013-05-22 15:54:00,68.0,65.8,27.99,SW,225,3.0,7.0,93,0.18,,,0.20,meteohub,2013-05-22 19:54:00,
2013-05-22 15:59:00,69.3,67.1,27.98,SE,135,3.0,7.0,93,0.18,,,0.20,meteohub,2013-05-22 19:59:00,
2013-05-22 16:04:00,69.6,66.9,27.98,South,180,3.0,5.0,91,0.18,,,0.20,meteohub,2013-05-22 20:04:00,
2013-05-22 16:09:00,69.4,66.4,27.98,SE,135,1.0,5.0,90,0.18,,,0.20,meteohub,2013-05-22 20:09:00,
2013-05-22 16:14:00,69.3,66.2,27.98,SW,225,2.0,5.0,90,0.18,,,0.20,meteohub,2013-05-22 20:14:00,
2013-05-22 16:20:00,69.1,66.4,27.98,SE,135,2.0,4.0,91,0.12,,,0.20,meteohub,2013-05-22 20:20:00,
2013-05-22 16:25:00,69.1,66.4,27.98,South,180,2.0,4.0,91,0.06,,,0.20,meteohub,2013-05-22 20:25:00,
2013-05-22 16:30:00,69.1,66.7,27.98,South,180,1.0,2.0,92,0.01,,,0.20,meteohub,2013-05-22 20:30:00,
2013-05-22 16:35:00,68.9,66.2,27.98,NW,315,4.0,4.0,91,0.01,,,0.20,meteohub,2013-05-22 20:35:00,
2013-05-22 16:40:00,68.7,66.4,27.97,SW,225,4.0,4.0,92,0.00,,,0.20,meteohub,2013-05-22 20:40:00,
2013-05-22 16:45:00,68.7,66.0,27.97,SW,225,0.0,4.0,91,0.00,,,0.20,meteohub,2013-05-22 20:45:00,
2013-05-22 16:50:00,68.7,66.4,27.97,SE,135,0.0,4.0,92,0.00,,,0.20,meteohub,2013-05-22 20:50:00,
2013-05-22 16:55:00,68.7,66.4,27.97,NNW,338,2.0,4.0,92,0.00,,,0.20,meteohub,2013-05-22 20:55:00,
2013-05-22 17:01:00,68.7,66.0,27.97,SW,225,0.0,3.0,91,0.00,,,0.20,meteohub,2013-05-22 21:01:00,
2013-05-22 17:06:00,68.7,66.0,27.97,West,270,3.0,3.0,91,0.00,,,0.20,meteohub,2013-05-22 21:06:00,
2013-05-22 17:11:00,68.7,65.7,27.97,West,270,3.0,4.0,90,0.00,,,0.20,meteohub,2013-05-22 21:11:00,
2013-05-22 17:16:00,68.9,65.5,27.98,NNW,338,4.0,4.0,89,0.00,,,0.20,meteohub,2013-05-22 21:16:00,
2013-05-22 17:21:00,68.9,65.5,27.98,West,270,2.0,4.0,89,0.00,,,0.20,meteohub,2013-05-22 21:21:00,
2013-05-22 17:26:00,68.5,64.8,27.99,SW,225,4.0,4.0,88,0.00,,,0.20,meteohub,2013-05-22 21:26:00,
2013-05-22 17:31:00,68.4,64.9,27.99,West,270,8.0,8.0,89,0.00,,,0.20,meteohub,2013-05-22 21:31:00,
2013-05-22 17:36:00,68.0,64.6,28.00,West,270,4.0,8.0,89,0.00,,,0.20,meteohub,2013-05-22 21:36:00,
2013-05-22 17:41:00,68.0,64.6,28.00,NW,315,2.0,11.0,89,0.00,,,0.20,meteohub,2013-05-22 21:41:00,
2013-05-22 17:47:00,67.8,64.4,28.00,SW,225,3.0,11.0,89,0.00,,,0.20,meteohub,2013-05-22 21:47:00,
2013-05-22 17:52:00,67.6,64.2,27.99,SW,225,6.0,11.0,89,0.00,,,0.20,meteohub,2013-05-22 21:52:00,
2013-05-22 17:57:00,67.3,64.2,27.99,West,270,2.0,6.0,90,0.00,,,0.20,meteohub,2013-05-22 21:57:00,
2013-05-22 18:02:00,66.9,64.2,28.00,NW,315,2.0,6.0,91,0.01,,,0.21,meteohub,2013-05-22 22:02:00,
2013-05-22 18:07:00,66.4,64.0,28.00,NW,315,4.0,6.0,92,0.01,,,0.21,meteohub,2013-05-22 22:07:00,
2013-05-22 18:12:00,66.0,64.2,27.99,South,180,1.0,5.0,94,0.01,,,0.21,meteohub,2013-05-22 22:12:00,
2013-05-22 18:17:00,65.8,64.4,28.00,South,180,2.0,5.0,95,0.02,,,0.22,meteohub,2013-05-22 22:17:00,
2013-05-22 18:22:00,65.5,64.0,27.99,North,0,1.0,4.0,95,0.02,,,0.22,meteohub,2013-05-22 22:22:00,
2013-05-22 18:27:00,65.3,63.9,27.99,South,180,2.0,2.0,95,0.06,,,0.26,meteohub,2013-05-22 22:27:00,
2013-05-22 18:32:00,65.1,64.0,27.99,East,90,1.0,2.0,96,0.06,,,0.26,meteohub,2013-05-22 22:32:00,
2013-05-22 18:37:00,65.1,64.0,27.99,NE,45,1.0,2.0,96,0.07,,,0.27,meteohub,2013-05-22 22:37:00,
2013-05-22 18:42:00,65.1,64.2,27.99,SE,135,1.0,2.0,97,0.08,,,0.28,meteohub,2013-05-22 22:42:00,
2013-05-22 18:47:00,64.9,64.0,27.99,NE,45,2.0,2.0,97,0.08,,,0.28,meteohub,2013-05-22 22:47:00,
2013-05-22 18:52:00,64.9,64.0,27.99,East,90,2.0,2.0,97,0.08,,,0.28,meteohub,2013-05-22 22:52:00,
2013-05-22 18:57:00,64.9,64.0,27.99,NE,45,2.0,3.0,97,0.09,,,0.30,meteohub,2013-05-22 22:57:00,
2013-05-22 19:02:00,64.8,64.2,27.99,East,90,2.0,3.0,98,0.08,,,0.30,meteohub,2013-05-22 23:02:00,
2013-05-22 19:07:00,64.8,64.2,27.98,SE,135,4.0,4.0,98,0.08,,,0.30,meteohub,2013-05-22 23:07:00,
2013-05-22 19:12:00,64.8,64.4,27.98,NE,45,2.0,4.0,99,0.07,,,0.30,meteohub,2013-05-22 23:12:00,
2013-05-22 19:17:00,64.8,64.4,27.99,South,180,1.0,4.0,99,0.07,,,0.30,meteohub,2013-05-22 23:17:00,
2013-05-22 19:22:00,64.8,64.4,27.99,SW,225,0.0,4.0,99,0.07,,,0.30,meteohub,2013-05-22 23:22:00,
2013-05-22 19:27:00,64.9,64.6,27.99,South,180,2.0,2.0,99,0.04,,,0.30,meteohub,2013-05-22 23:27:00,
2013-05-22 19:32:00,65.1,64.8,28.00,SW,225,1.0,2.0,99,0.02,,,0.30,meteohub,2013-05-22 23:32:00,
2013-05-22 19:37:00,64.9,64.6,28.00,SW,225,1.0,2.0,99,0.02,,,0.30,meteohub,2013-05-22 23:37:00,
2013-05-22 19:42:00,64.9,64.6,28.00,SW,225,1.0,2.0,99,0.01,,,0.30,meteohub,2013-05-22 23:42:00,
2013-05-22 19:47:00,64.9,64.6,28.00,SE,135,1.0,2.0,99,0.01,,,0.30,meteohub,2013-05-22 23:47:00,
2013-05-22 19:52:00,64.8,64.4,28.00,West,270,0.0,2.0,99,0.01,,,0.30,meteohub,2013-05-22 23:52:00,
2013-05-22 19:57:00,64.8,64.4,28.01,SW,225,1.0,2.0,99,0.00,,,0.30,meteohub,2013-05-22 23:57:00,
2013-05-22 20:02:00,64.8,64.4,28.01,SW,225,0.0,2.0,99,0.00,,,0.30,meteohub,2013-05-23 00:02:00,
2013-05-22 20:07:00,64.6,64.2,28.01,West,270,2.0,2.0,99,0.00,,,0.30,meteohub,2013-05-23 00:07:00,
2013-05-22 20:12:00,64.4,64.0,28.01,NE,45,1.0,2.0,99,0.00,,,0.30,meteohub,2013-05-23 00:12:00,
2013-05-22 20:17:00,64.2,63.3,28.01,SE,135,0.0,2.0,97,0.00,,,0.30,meteohub,2013-05-23 00:17:00,
2013-05-22 20:22:00,64.0,63.1,28.01,NW,315,1.0,2.0,97,0.00,,,0.30,meteohub,2013-05-23 00:22:00,
2013-05-22 20:27:00,63.9,63.0,28.01,South,180,0.0,2.0,97,0.00,,,0.30,meteohub,2013-05-23 00:27:00,
2013-05-22 20:32:00,63.5,62.6,28.01,SW,225,1.0,2.0,97,0.00,,,0.30,meteohub,2013-05-23 00:32:00,
2013-05-22 20:37:00,63.3,62.4,28.01,SW,225,0.0,2.0,97,0.00,,,0.30,meteohub,2013-05-23 00:37:00,
2013-05-22 20:42:00,63.3,62.4,28.01,SW,225,0.0,2.0,97,0.00,,,0.30,meteohub,2013-05-23 00:42:00,
2013-05-22 20:47:00,63.1,62.2,28.01,NW,315,2.0,2.0,97,0.00,,,0.30,meteohub,2013-05-23 00:47:00,
2013-05-22 20:52:00,63.1,62.2,28.01,South,180,1.0,2.0,97,0.00,,,0.30,meteohub,2013-05-23 00:52:00,
2013-05-22 20:57:00,63.0,62.1,28.01,NE,45,0.0,2.0,97,0.00,,,0.30,meteohub,2013-05-23 00:57:00,
2013-05-22 21:02:00,62.8,61.9,28.00,East,90,0.0,2.0,97,0.00,,,0.30,meteohub,2013-05-23 01:02:00,
2013-05-22 21:07:00,62.8,61.9,28.00,North,0,3.0,3.0,97,0.00,,,0.30,meteohub,2013-05-23 01:07:00,
2013-05-22 21:12:00,63.0,62.1,28.00,East,90,2.0,3.0,97,0.00,,,0.30,meteohub,2013-05-23 01:12:00,
2013-05-22 21:18:00,63.0,62.1,28.00,South,180,1.0,3.0,97,0.00,,,0.30,meteohub,2013-05-23 01:18:00,
2013-05-22 21:23:00,63.0,62.1,28.00,NW,315,1.0,3.0,97,0.00,,,0.30,meteohub,2013-05-23 01:23:00,
2013-05-22 21:28:00,63.0,62.1,28.01,NW,315,0.0,3.0,97,0.00,,,0.30,meteohub,2013-05-23 01:28:00,
2013-05-22 21:33:00,63.0,62.1,28.00,South,180,1.0,2.0,97,0.00,,,0.30,meteohub,2013-05-23 01:33:00,
2013-05-22 21:38:00,63.0,62.1,28.00,South,180,1.0,2.0,97,0.00,,,0.30,meteohub,2013-05-23 01:38:00,
2013-05-22 21:43:00,63.0,62.1,28.00,South,180,0.0,1.0,97,0.00,,,0.30,meteohub,2013-05-23 01:43:00,
2013-05-22 21:48:00,63.0,62.1,28.01,South,180,0.0,1.0,97,0.00,,,0.30,meteohub,2013-05-23 01:48:00,
2013-05-22 21:54:00,63.0,62.1,28.01,NE,45,0.0,1.0,97,0.00,,,0.30,meteohub,2013-05-23 01:54:00,
2013-05-22 21:59:00,63.0,62.1,28.01,South,180,1.0,1.0,97,0.00,,,0.30,meteohub,2013-05-23 01:59:00,
2013-05-22 22:04:00,63.1,62.2,28.01,South,180,2.0,2.0,97,0.00,,,0.30,meteohub,2013-05-23 02:04:00,
2013-05-22 22:09:00,63.0,62.1,28.00,SW,225,2.0,2.0,97,0.00,,,0.30,meteohub,2013-05-23 02:09:00,
2013-05-22 22:14:00,63.1,62.2,28.01,South,180,1.0,2.0,97,0.00,,,0.30,meteohub,2013-05-23 02:14:00,
2013-05-22 22:19:00,63.1,62.2,28.01,SW,225,1.0,3.0,97,0.00,,,0.30,meteohub,2013-05-23 02:19:00,
2013-05-22 22:24:00,63.0,62.1,28.01,NW,315,2.0,3.0,97,0.00,,,0.30,meteohub,2013-05-23 02:24:00,
2013-05-22 22:30:00,63.0,62.1,28.01,West,270,1.0,3.0,97,0.00,,,0.30,meteohub,2013-05-23 02:30:00,
2013-05-22 22:35:00,63.0,62.1,28.01,West,270,1.0,2.0,97,0.00,,,0.30,meteohub,2013-05-23 02:35:00,
2013-05-22 22:40:00,63.0,62.1,28.02,SW,225,2.0,2.0,97,0.00,,,0.30,meteohub,2013-05-23 02:40:00,
2013-05-22 22:45:00,62.8,61.9,28.02,NW,315,2.0,2.0,97,0.00,,,0.30,meteohub,2013-05-23 02:45:00,
2013-05-22 22:50:00,62.8,61.9,28.02,NW,315,2.0,2.0,97,0.00,,,0.30,meteohub,2013-05-23 02:50:00,
2013-05-22 22:55:00,62.8,61.9,28.02,NW,315,3.0,3.0,97,0.00,,,0.30,meteohub,2013-05-23 02:55:00,
2013-05-22 23:00:00,62.8,61.9,28.02,NW,315,2.0,3.0,97,0.00,,,0.30,meteohub,2013-05-23 03:00:00,
2013-05-22 23:05:00,62.8,61.9,28.02,West,270,2.0,3.0,97,0.00,,,0.30,meteohub,2013-05-23 03:05:00,
2013-05-22 23:11:00,62.8,61.9,28.02,NW,315,2.0,3.0,97,0.00,,,0.30,meteohub,2013-05-23 03:11:00,
2013-05-22 23:16:00,62.8,61.9,28.02,NW,315,0.0,2.0,97,0.00,,,0.30,meteohub,2013-05-23 03:16:00,
2013-05-22 23:21:00,62.8,61.9,28.01,SE,135,0.0,2.0,97,0.00,,,0.30,meteohub,2013-05-23 03:21:00,
2013-05-22 23:26:00,62.6,61.7,28.01,SE,135,2.0,2.0,97,0.00,,,0.30,meteohub,2013-05-23 03:26:00,
2013-05-22 23:31:00,62.6,61.7,28.01,West,270,3.0,3.0,97,0.00,,,0.30,meteohub,2013-05-23 03:31:00,
2013-05-22 23:36:00,62.8,61.9,28.02,West,270,2.0,4.0,97,0.00,,,0.30,meteohub,2013-05-23 03:36:00,
2013-05-22 23:41:00,62.8,61.9,28.01,NW,315,2.0,4.0,97,0.00,,,0.30,meteohub,2013-05-23 03:41:00,
2013-05-22 23:46:00,62.8,61.9,28.01,NW,315,2.0,4.0,97,0.00,,,0.30,meteohub,2013-05-23 03:46:00,
2013-05-22 23:52:00,62.8,61.9,28.01,North,0,0.0,3.0,97,0.00,,,0.30,meteohub,2013-05-23 03:52:00,
2013-05-22 23:57:00,62.8,61.9,28.01,South,180,0.0,2.0,97,0.00,,,0.30,meteohub,2013-05-23 03:57:00,